Time;durP1;ratioP1;P1;durP2;ratioP2;P2;SDS_P1;SDS_P2;PMS_P1;PMS_P2;Temp;Humidity;BMP_temperature;BMP_pressure;BME280_temperature;BME280_humidity;BME280_pressure;Samples;Min_cycle;Max_cycle;Signal;HPM_P1;HPM_P2
2023/12/16 00:01:03;;;;;;;0.30;0.20;;;;;;;5.41;100.00;95895.78;5134632;27;20446;-61
2023/12/16 00:03:32;;;;;;;0.30;0.20;;;;;;;5.54;100.00;95901.66;5134238;27;20462;-61
2023/12/16 00:06:01;;;;;;;0.30;0.20;;;;;;;5.36;100.00;95874.63;5134679;27;20435;-61
2023/12/16 00:08:30;;;;;;;0.30;0.20;;;;;;;5.72;100.00;95906.06;5133857;27;20463;-61
2023/12/16 00:10:58;;;;;;;0.30;0.20;;;;;;;5.61;100.00;95910.28;5134034;27;20873;-61
2023/12/16 00:13:27;;;;;;;0.30;0.20;;;;;;;5.73;100.00;95907.66;5134640;27;20435;-60
2023/12/16 00:15:58;;;;;;;0.30;0.20;;;;;;;5.62;100.00;95879.50;5133868;27;20537;-61
2023/12/16 00:18:26;;;;;;;0.30;0.20;;;;;;;5.50;100.00;95883.91;5134287;27;20435;-61
2023/12/16 00:20:55;;;;;;;0.30;0.20;;;;;;;5.70;100.00;95911.53;5133873;27;20930;-60
2023/12/16 00:23:23;;;;;;;0.30;0.20;;;;;;;5.69;100.00;95922.31;5134003;27;20521;-61
2023/12/16 00:25:52;;;;;;;0.30;0.20;;;;;;;5.52;100.00;95916.03;5133486;27;20434;-61
2023/12/16 00:28:20;;;;;;;0.40;0.30;;;;;;;5.45;100.00;95921.41;5133882;27;20473;-60
2023/12/16 00:30:49;;;;;;;0.60;0.30;;;;;;;5.16;100.00;95924.00;5132975;27;20525;-61
2023/12/16 00:33:19;;;;;;;0.97;0.97;;;;;;;5.27;100.00;95926.69;5134278;27;20437;-62
2023/12/16 00:35:48;;;;;;;0.30;0.20;;;;;;;5.36;100.00;95937.69;5133152;27;20435;-61
2023/12/16 00:38:16;;;;;;;0.30;0.20;;;;;;;5.24;100.00;95935.00;5133908;27;20526;-60
2023/12/16 00:40:45;;;;;;;0.30;0.20;;;;;;;5.05;100.00;95878.25;5132936;27;20445;-61
2023/12/16 00:43:13;;;;;;;0.30;0.20;;;;;;;5.61;100.00;95943.66;5133936;27;20434;-61
2023/12/16 00:45:42;;;;;;;0.30;0.20;;;;;;;5.26;100.00;95919.84;5133947;27;20442;-61
2023/12/16 00:48:11;;;;;;;0.30;0.20;;;;;;;5.21;100.00;95943.34;5133700;27;20527;-61
2023/12/16 00:50:42;;;;;;;0.30;0.20;;;;;;;5.25;100.00;95947.13;5133172;27;20478;-61
2023/12/16 00:53:11;;;;;;;0.30;0.20;;;;;;;5.43;100.00;95954.19;5132842;27;20439;-61
2023/12/16 00:55:40;;;;;;;0.30;0.20;;;;;;;5.18;100.00;95956.09;5133782;27;20438;-61
2023/12/16 00:58:09;;;;;;;0.30;0.20;;;;;;;5.29;100.00;95948.28;5132703;27;20515;-61
2023/12/16 01:00:38;;;;;;;0.30;0.20;;;;;;;5.32;100.00;95907.59;5133614;27;20510;-61
2023/12/16 01:03:06;;;;;;;0.30;0.20;;;;;;;5.42;100.00;95952.56;5133541;27;20441;-60
2023/12/16 01:05:37;;;;;;;0.30;0.20;;;;;;;5.10;100.00;95959.84;5132549;27;20972;-60
2023/12/16 01:08:07;;;;;;;0.30;0.20;;;;;;;5.08;100.00;95951.38;5132672;27;20495;-61
2023/12/16 01:10:36;;;;;;;0.77;0.53;;;;;;;5.08;100.00;95962.66;5132818;27;20553;-61
2023/12/16 01:13:04;;;;;;;0.30;0.20;;;;;;;5.20;100.00;95959.31;5132927;27;20427;-61
2023/12/16 01:15:33;;;;;;;0.30;0.20;;;;;;;5.09;100.00;95959.03;5132044;27;20434;-61
2023/12/16 01:18:01;;;;;;;0.40;0.30;;;;;;;5.11;100.00;95966.66;5133027;27;20466;-60
2023/12/16 01:20:30;;;;;;;0.30;0.20;;;;;;;3.84;100.00;95783.63;5132828;27;20935;-60
2023/12/16 01:22:59;;;;;;;0.30;0.20;;;;;;;4.22;100.00;95807.09;5132464;27;20991;-60
2023/12/16 01:25:29;;;;;;;0.30;0.20;;;;;;;5.08;100.00;95973.16;5132931;27;20445;-61
2023/12/16 01:27:57;;;;;;;0.30;0.20;;;;;;;4.83;100.00;95916.50;5132481;27;20439;-61
2023/12/16 01:30:26;;;;;;;0.40;0.30;;;;;;;4.96;100.00;95964.41;5132333;27;20894;-61
2023/12/16 01:32:55;;;;;;;0.30;0.20;;;;;;;4.87;100.00;95955.22;5132830;27;20435;-61
2023/12/16 01:35:23;;;;;;;0.30;0.20;;;;;;;5.17;100.00;95967.63;5132324;27;20446;-61
2023/12/16 01:37:52;;;;;;;0.30;0.20;;;;;;;4.63;100.00;95903.53;5132741;27;20438;-60
2023/12/16 01:40:20;;;;;;;0.30;0.20;;;;;;;4.86;100.00;95974.63;5131267;27;20522;-60
2023/12/16 01:42:50;;;;;;;0.30;0.20;;;;;;;4.81;100.00;95966.59;5132343;27;20499;-60
2023/12/16 01:45:19;;;;;;;0.40;0.30;;;;;;;4.95;100.00;95972.53;5132090;27;20437;-60
2023/12/16 01:47:48;;;;;;;0.30;0.20;;;;;;;4.98;100.00;95979.97;5132826;27;20434;-60
2023/12/16 01:50:17;;;;;;;0.30;0.20;;;;;;;4.95;100.00;95977.78;5132084;27;20490;-60
2023/12/16 01:52:47;;;;;;;0.30;0.20;;;;;;;4.87;100.00;95975.44;5132060;27;20984;-61
2023/12/16 01:55:16;;;;;;;0.50;0.30;;;;;;;5.00;100.00;95983.19;5132420;27;20435;-61
2023/12/16 01:57:45;;;;;;;0.30;0.20;;;;;;;5.03;100.00;95988.78;5132535;27;20434;-62
2023/12/16 02:00:16;;;;;;;0.33;0.23;;;;;;;4.90;100.00;95923.28;5129665;27;20427;-61
2023/12/16 02:02:45;;;;;;;0.30;0.20;;;;;;;5.09;100.00;95980.03;5124169;28;20430;-62
2023/12/16 02:05:14;;;;;;;0.30;0.20;;;;;;;5.29;100.00;95974.56;5131948;28;20437;-61
2023/12/16 02:07:44;;;;;;;0.30;0.20;;;;;;;5.31;100.00;95969.09;5132292;28;21008;-62
2023/12/16 02:10:14;;;;;;;0.30;0.20;;;;;;;5.11;100.00;95975.38;5105201;28;20442;-62
2023/12/16 02:12:43;;;;;;;0.30;0.20;;;;;;;5.09;100.00;95973.97;5131592;28;20478;-62
2023/12/16 02:15:12;;;;;;;0.30;0.20;;;;;;;5.01;100.00;95988.22;5119314;28;20438;-62
2023/12/16 02:17:42;;;;;;;0.30;0.20;;;;;;;5.19;100.00;95984.00;5132115;27;20434;-62
2023/12/16 02:20:14;;;;;;;0.30;0.20;;;;;;;5.23;100.00;95982.53;5132585;27;20792;-62
2023/12/16 02:22:46;;;;;;;0.30;0.20;;;;;;;4.75;100.00;95964.84;5131509;28;20430;-62
2023/12/16 02:25:17;;;;;;;0.50;0.30;;;;;;;5.01;100.00;95998.72;5132497;27;20438;-62
2023/12/16 02:27:46;;;;;;;0.40;0.20;;;;;;;4.93;100.00;95924.66;5132012;27;20506;-62
2023/12/16 02:30:15;;;;;;;0.30;0.20;;;;;;;5.13;100.00;95975.94;5132108;28;20442;-62
2023/12/16 02:32:44;;;;;;;0.30;0.20;;;;;;;4.93;100.00;95999.00;5131649;28;20508;-61
2023/12/16 02:35:13;;;;;;;0.30;0.30;;;;;;;5.12;100.00;95976.19;5132438;28;20438;-62
2023/12/16 02:37:41;;;;;;;0.30;0.20;;;;;;;5.31;100.00;95995.38;5131681;28;20517;-61
2023/12/16 02:40:11;;;;;;;0.30;0.20;;;;;;;5.15;100.00;95999.41;5131920;28;20505;-62
2023/12/16 02:42:41;;;;;;;0.30;0.20;;;;;;;5.01;100.00;96001.34;5131489;28;20427;-62
2023/12/16 02:45:10;;;;;;;0.30;0.20;;;;;;;5.13;100.00;95993.56;5131027;28;20539;-62
2023/12/16 02:47:39;;;;;;;0.30;0.20;;;;;;;5.20;100.00;96011.88;5132340;28;20473;-61
2023/12/16 02:50:09;;;;;;;0.30;0.20;;;;;;;5.14;100.00;96011.72;5130900;27;20510;-62
2023/12/16 02:52:37;;;;;;;0.30;0.20;;;;;;;5.22;100.00;96012.44;5134130;27;20533;-62
2023/12/16 02:55:06;;;;;;;0.40;0.23;;;;;;;4.82;100.00;95999.72;5135751;27;20843;-62
2023/12/16 02:57:35;;;;;;;0.40;0.20;;;;;;;5.20;100.00;96017.13;5135532;27;20458;-61
2023/12/16 03:00:07;;;;;;;0.30;0.20;;;;;;;5.05;100.00;96010.41;5135428;27;20434;-61
2023/12/16 03:02:36;;;;;;;0.30;0.20;;;;;;;4.97;100.00;96015.13;5135523;27;20478;-61
2023/12/16 03:05:05;;;;;;;0.40;0.30;;;;;;;4.99;100.00;96015.72;5135761;27;20434;-61
2023/12/16 03:07:33;;;;;;;0.43;0.43;;;;;;;4.86;100.00;96029.78;5135767;27;20804;-60
2023/12/16 03:10:02;;;;;;;0.30;0.20;;;;;;;5.14;100.00;96034.56;5135194;27;20805;-61
2023/12/16 03:12:31;;;;;;;0.30;0.20;;;;;;;4.15;100.00;95892.13;5135602;27;20478;-61
2023/12/16 03:14:59;;;;;;;0.30;0.20;;;;;;;4.30;100.00;95964.22;5135081;27;20939;-61
2023/12/16 03:17:29;;;;;;;0.30;0.20;;;;;;;4.82;100.00;96036.50;5135051;27;20954;-62
2023/12/16 03:19:58;;;;;;;0.30;0.20;;;;;;;4.91;100.00;96045.69;5135474;27;20470;-61
2023/12/16 03:22:27;;;;;;;0.40;0.30;;;;;;;4.72;100.00;96046.69;5135033;27;20442;-61
2023/12/16 03:24:55;;;;;;;0.30;0.20;;;;;;;4.93;100.00;96046.28;5135493;27;20474;-61
2023/12/16 03:27:24;;;;;;;0.30;0.20;;;;;;;4.82;100.00;96030.44;5135643;27;20481;-61
2023/12/16 03:29:52;;;;;;;0.30;0.20;;;;;;;5.05;100.00;96062.16;5135442;27;20434;-62
2023/12/16 03:32:21;;;;;;;0.30;0.20;;;;;;;4.94;100.00;96062.84;5134292;27;20468;-61
2023/12/16 03:34:51;;;;;;;0.30;0.30;;;;;;;4.81;100.00;96069.00;5134741;27;20529;-62
2023/12/16 03:37:20;;;;;;;0.30;0.20;;;;;;;5.05;100.00;96062.94;5134613;27;20435;-62
2023/12/16 03:39:48;;;;;;;0.30;0.20;;;;;;;5.18;100.00;96069.09;5134940;27;20837;-62
2023/12/16 03:42:17;;;;;;;0.30;0.20;;;;;;;4.94;100.00;96079.41;5135202;27;20433;-62
2023/12/16 03:44:46;;;;;;;0.30;0.20;;;;;;;4.89;100.00;96073.19;5134812;27;20442;-62
2023/12/16 03:47:15;;;;;;;0.30;0.20;;;;;;;5.04;100.00;96082.34;5134510;27;20870;-62
2023/12/16 03:49:44;;;;;;;0.30;0.20;;;;;;;4.77;100.00;96098.53;5134603;27;20546;-63
2023/12/16 03:52:15;;;;;;;0.30;0.20;;;;;;;4.75;100.00;96097.97;5134054;27;21014;-63
2023/12/16 03:54:45;;;;;;;0.30;0.20;;;;;;;4.37;100.00;96037.66;5130854;27;20508;-62
2023/12/16 03:57:13;;;;;;;0.30;0.20;;;;;;;4.85;100.00;96093.03;5134671;27;20473;-62
2023/12/16 03:59:42;;;;;;;0.30;0.20;;;;;;;4.93;100.00;96096.19;5134692;27;20435;-62
2023/12/16 04:02:10;;;;;;;0.30;0.20;;;;;;;4.91;100.00;96097.41;5134229;27;20481;-61
2023/12/16 04:04:39;;;;;;;0.30;0.20;;;;;;;5.10;100.00;96099.09;5120254;27;20947;-62
2023/12/16 04:07:07;;;;;;;0.30;0.30;;;;;;;5.24;100.00;96105.03;5134925;27;20431;-62
2023/12/16 04:09:40;;;;;;;0.30;0.20;;;;;;;4.73;100.00;96090.28;5134239;27;20438;-62
2023/12/16 04:12:09;;;;;;;0.30;0.20;;;;;;;3.23;100.00;95829.88;5134064;27;20430;-62
2023/12/16 04:14:38;;;;;;;0.67;0.33;;;;;;;4.80;100.00;96098.13;5134323;27;20439;-62
2023/12/16 04:17:06;;;;;;;0.40;0.40;;;;;;;5.07;100.00;96096.88;5134050;27;20487;-62
2023/12/16 04:19:35;;;;;;;0.30;0.20;;;;;;;4.97;100.00;96091.31;5133222;27;20491;-62
2023/12/16 04:22:04;;;;;;;0.30;0.20;;;;;;;5.19;100.00;96107.50;5134326;27;20453;-62
2023/12/16 04:24:33;;;;;;;0.40;0.33;;;;;;;4.98;100.00;96112.09;5134298;27;20430;-63
2023/12/16 04:27:03;;;;;;;0.77;0.50;;;;;;;4.96;100.00;96113.34;5133873;27;20438;-62
2023/12/16 04:29:31;;;;;;;1.70;0.50;;;;;;;4.76;100.00;96121.38;5133811;27;20430;-62
2023/12/16 04:32:00;;;;;;;0.40;0.30;;;;;;;4.67;100.00;96112.16;5133298;27;20434;-63
2023/12/16 04:34:28;;;;;;;0.30;0.30;;;;;;;5.00;100.00;96117.97;5133593;27;20473;-63
2023/12/16 04:36:57;;;;;;;0.30;0.20;;;;;;;4.89;100.00;96123.91;5133963;27;20443;-63
2023/12/16 04:39:26;;;;;;;0.60;0.30;;;;;;;4.82;100.00;96117.09;5133636;27;20431;-63
2023/12/16 04:41:54;;;;;;;1.30;0.50;;;;;;;5.08;100.00;96120.31;5133856;27;20433;-63
2023/12/16 04:44:24;;;;;;;0.30;0.20;;;;;;;4.95;100.00;96119.63;5133608;27;20526;-63
2023/12/16 04:46:53;;;;;;;0.30;0.20;;;;;;;4.98;100.00;96109.47;5133780;27;20434;-62
2023/12/16 04:49:21;;;;;;;1.40;0.80;;;;;;;4.90;100.00;96122.91;5125249;27;20572;-62
2023/12/16 04:51:50;;;;;;;0.83;0.80;;;;;;;4.78;100.00;96121.94;5126413;27;20471;-62
2023/12/16 04:54:19;;;;;;;1.17;1.17;;;;;;;5.13;100.00;96122.31;5122095;27;20470;-63
2023/12/16 04:56:47;;;;;;;2.20;1.50;;;;;;;5.22;100.00;96130.69;5133119;27;20429;-63
2023/12/16 04:59:16;;;;;;;0.60;0.60;;;;;;;5.20;100.00;96138.00;5133373;27;20431;-62
2023/12/16 05:01:46;;;;;;;0.40;0.30;;;;;;;5.43;100.00;96133.75;5133071;27;20435;-62
2023/12/16 05:04:15;;;;;;;0.30;0.20;;;;;;;5.26;100.00;96137.16;5132791;27;20521;-61
2023/12/16 05:06:43;;;;;;;0.60;0.30;;;;;;;5.10;100.00;96138.50;5132997;27;20798;-63
2023/12/16 05:09:12;;;;;;;0.30;0.20;;;;;;;4.92;100.00;96143.69;5133194;27;20942;-62
2023/12/16 05:11:41;;;;;;;0.60;0.60;;;;;;;4.85;100.00;96138.50;5133121;27;20518;-62
2023/12/16 05:14:10;;;;;;;0.30;0.30;;;;;;;4.99;100.00;96166.25;5132513;27;20556;-62
2023/12/16 05:16:38;;;;;;;1.80;0.60;;;;;;;4.79;100.00;96141.97;5132868;27;20458;-62
2023/12/16 05:19:08;;;;;;;0.50;0.50;;;;;;;5.01;100.00;96164.22;5133457;27;20794;-63
2023/12/16 05:21:37;;;;;;;0.40;0.30;;;;;;;5.23;100.00;96167.31;5133058;27;20441;-62
2023/12/16 05:24:06;;;;;;;1.07;0.70;;;;;;;4.94;100.00;96152.16;5133012;27;20599;-62
2023/12/16 05:26:34;;;;;;;0.33;0.27;;;;;;;5.27;100.00;96170.28;5133413;27;20466;-62
2023/12/16 05:29:03;;;;;;;0.60;0.60;;;;;;;5.18;100.00;96166.31;5132459;27;20439;-62
2023/12/16 05:31:31;;;;;;;0.97;0.97;;;;;;;5.23;100.00;96177.00;5123355;27;20859;-62
2023/12/16 05:34:00;;;;;;;0.40;0.27;;;;;;;5.13;100.00;96136.22;5128053;27;20466;-62
2023/12/16 05:36:30;;;;;;;4.40;2.63;;;;;;;5.18;100.00;96185.53;5132205;27;20510;-62
2023/12/16 05:38:59;;;;;;;0.30;0.30;;;;;;;5.19;100.00;96168.72;5132120;27;20438;-61
2023/12/16 05:41:28;;;;;;;0.47;0.47;;;;;;;5.39;100.00;96189.63;5132679;27;20468;-61
2023/12/16 05:43:56;;;;;;;0.50;0.20;;;;;;;5.10;100.00;96186.59;5132885;27;20480;-61
2023/12/16 05:46:25;;;;;;;0.40;0.30;;;;;;;5.19;100.00;96170.56;5132587;27;20435;-61
2023/12/16 05:48:54;;;;;;;0.50;0.50;;;;;;;5.36;100.00;96201.38;5118492;27;20975;-60
2023/12/16 05:51:23;;;;;;;5.37;0.80;;;;;;;5.35;100.00;96198.94;5132630;27;20506;-62
2023/12/16 05:53:53;;;;;;;3.10;0.70;;;;;;;5.20;100.00;96201.88;5132087;27;20477;-61
2023/12/16 05:56:21;;;;;;;0.40;0.30;;;;;;;5.32;100.00;96207.25;5132536;27;20499;-61
2023/12/16 05:58:50;;;;;;;0.90;0.80;;;;;;;4.95;100.00;96214.19;5132338;27;20485;-61
2023/12/16 06:01:20;;;;;;;0.40;0.40;;;;;;;4.54;100.00;96162.13;5132508;27;20442;-60
2023/12/16 06:03:49;;;;;;;2.30;1.17;;;;;;;4.75;100.00;96180.19;5132493;27;20439;-62
2023/12/16 06:06:18;;;;;;;0.70;0.50;;;;;;;4.78;100.00;96203.38;5131759;28;20437;-62
2023/12/16 06:08:46;;;;;;;0.50;0.40;;;;;;;5.17;100.00;96223.31;5132567;28;20964;-62
2023/12/16 06:11:16;;;;;;;1.80;1.70;;;;;;;4.79;100.00;96210.25;5131996;27;20434;-62
2023/12/16 06:13:45;;;;;;;0.50;0.30;;;;;;;4.97;100.00;96243.69;5132282;27;20477;-62
2023/12/16 06:16:16;;;;;;;0.40;0.30;;;;;;;5.06;100.00;96252.91;5117685;27;20810;-62
2023/12/16 06:18:49;;;;;;;0.80;0.80;;;;;;;4.86;100.00;96246.97;5132235;28;20511;-61
2023/12/16 06:21:18;;;;;;;2.10;0.40;;;;;;;5.14;100.00;96263.97;5127273;28;20934;-62
2023/12/16 06:23:46;;;;;;;1.10;0.60;;;;;;;5.20;100.00;96249.19;5111701;28;20959;-62
2023/12/16 06:26:16;;;;;;;0.60;0.50;;;;;;;5.25;100.00;96274.81;5124140;27;20456;-61
2023/12/16 06:28:45;;;;;;;1.57;1.40;;;;;;;4.86;100.00;96268.78;5136311;27;20435;-62
2023/12/16 06:31:17;;;;;;;0.77;0.53;;;;;;;4.91;100.00;96239.25;5136481;27;20466;-61
2023/12/16 06:33:45;;;;;;;0.93;0.93;;;;;;;5.03;100.00;96272.53;5135993;27;20517;-62
2023/12/16 06:36:14;;;;;;;1.17;0.40;;;;;;;5.33;100.00;96292.97;5136101;27;20438;-61
2023/12/16 06:38:43;;;;;;;6.57;2.00;;;;;;;4.84;100.00;96223.53;5136131;27;20443;-62
2023/12/16 06:41:11;;;;;;;1.80;0.90;;;;;;;5.06;100.00;96289.69;5136064;27;20577;-61
2023/12/16 06:43:41;;;;;;;0.40;0.33;;;;;;;5.24;100.00;96302.94;5135676;27;20485;-61
2023/12/16 06:46:10;;;;;;;0.43;0.30;;;;;;;5.32;100.00;96296.59;5135642;27;20438;-61
2023/12/16 06:48:39;;;;;;;0.60;0.30;;;;;;;4.86;100.00;96302.94;5135496;27;20462;-62
2023/12/16 06:51:08;;;;;;;0.40;0.30;;;;;;;4.74;100.00;96280.97;5135021;27;20470;-61
2023/12/16 06:53:36;;;;;;;0.30;0.20;;;;;;;5.31;100.00;96321.31;5135846;27;20507;-63
2023/12/16 06:56:07;;;;;;;0.83;0.83;;;;;;;5.19;100.00;96320.38;5135159;27;20529;-62
2023/12/16 06:58:36;;;;;;;0.93;0.77;;;;;;;4.90;100.00;96287.56;5135794;27;20434;-62
2023/12/16 07:01:06;;;;;;;0.57;0.57;;;;;;;5.05;100.00;96327.50;5135489;27;20452;-62
2023/12/16 07:03:35;;;;;;;0.90;0.90;;;;;;;5.07;100.00;96315.78;5135950;27;20439;-63
2023/12/16 07:06:04;;;;;;;0.50;0.50;;;;;;;4.66;100.00;96294.34;5130927;27;20435;-61
2023/12/16 07:08:34;;;;;;;0.60;0.60;;;;;;;4.67;100.00;96327.47;5127230;27;20517;-62
2023/12/16 07:11:04;;;;;;;0.60;0.60;;;;;;;4.79;100.00;96332.88;5135208;27;20503;-62
2023/12/16 07:13:33;;;;;;;0.50;0.50;;;;;;;4.89;100.00;96331.41;5135976;27;20838;-61
2023/12/16 07:16:04;;;;;;;0.60;0.50;;;;;;;4.85;100.00;96345.19;5135087;27;20911;-61
2023/12/16 07:18:34;;;;;;;0.40;0.30;;;;;;;4.56;100.00;96341.22;5135592;27;20428;-61
2023/12/16 07:21:06;;;;;;;0.87;0.87;;;;;;;4.74;100.00;96341.38;5135107;27;20439;-61
2023/12/16 07:23:34;;;;;;;0.40;0.30;;;;;;;4.82;100.00;96346.41;5135398;27;20434;-62
2023/12/16 07:26:04;;;;;;;15.33;0.57;;;;;;;5.06;100.00;96332.53;5135180;27;20943;-62
2023/12/16 07:28:32;;;;;;;0.90;0.90;;;;;;;5.14;100.00;96340.19;5123648;27;20467;-62
2023/12/16 07:31:01;;;;;;;0.33;0.23;;;;;;;4.65;100.00;96276.19;5123075;27;20439;-62
2023/12/16 07:33:30;;;;;;;6.00;0.50;;;;;;;5.02;100.00;96327.91;5135239;27;20526;-62
2023/12/16 07:36:00;;;;;;;2.10;1.03;;;;;;;4.46;100.00;96283.91;5135176;27;20474;-62
2023/12/16 07:38:28;;;;;;;1.63;1.53;;;;;;;5.05;100.00;96338.81;5133933;27;20490;-61
2023/12/16 07:40:57;;;;;;;2.30;0.60;;;;;;;5.38;100.00;96333.38;5134310;27;21022;-61
2023/12/16 07:43:26;;;;;;;0.40;0.40;;;;;;;5.43;100.00;96338.00;5134968;27;20463;-61
2023/12/16 07:45:54;;;;;;;1.57;1.47;;;;;;;5.54;100.00;96335.50;5135136;27;20800;-61
2023/12/16 07:48:24;;;;;;;2.30;0.83;;;;;;;5.35;100.00;96346.13;5134072;27;20718;-61
2023/12/16 07:50:53;;;;;;;0.50;0.37;;;;;;;5.55;100.00;96320.53;5134280;27;20489;-62
2023/12/16 07:53:24;;;;;;;0.30;0.30;;;;;;;5.50;100.00;96336.94;5134528;27;20435;-62
2023/12/16 07:55:52;;;;;;;0.40;0.30;;;;;;;5.75;100.00;96347.47;5133922;27;20505;-62
2023/12/16 07:58:21;;;;;;;0.43;0.40;;;;;;;5.54;100.00;96329.44;5134465;27;20824;-61
2023/12/16 08:00:50;;;;;;;0.40;0.40;;;;;;;5.82;100.00;96350.88;5134135;27;20851;-61
2023/12/16 08:03:19;;;;;;;0.90;0.80;;;;;;;5.66;100.00;96364.56;5108642;27;20558;-62
2023/12/16 08:05:47;;;;;;;0.60;0.40;;;;;;;5.42;100.00;96318.78;5134469;27;20434;-62
2023/12/16 08:08:16;;;;;;;0.50;0.40;;;;;;;5.20;97.85;96279.91;5134224;27;20503;-62
2023/12/16 08:10:46;;;;;;;0.40;0.30;;;;;;;5.85;99.86;96368.88;5134413;27;20454;-62
2023/12/16 08:13:15;;;;;;;0.50;0.50;;;;;;;5.88;97.54;96376.38;5133729;27;20434;-61
2023/12/16 08:15:43;;;;;;;1.23;0.30;;;;;;;5.68;97.32;96375.66;5133702;27;20474;-61
2023/12/16 08:18:13;;;;;;;0.40;0.27;;;;;;;5.64;99.07;96364.75;5128658;27;20426;-61
2023/12/16 08:20:44;;;;;;;0.40;0.30;;;;;;;5.66;97.28;96369.81;5127330;27;20529;-61
2023/12/16 08:23:13;;;;;;;0.67;0.33;;;;;;;5.84;97.08;96398.03;5134485;27;20438;-61
2023/12/16 08:25:41;;;;;;;0.30;0.20;;;;;;;5.58;95.34;96370.06;5133715;27;20477;-60
2023/12/16 08:28:11;;;;;;;0.30;0.20;;;;;;;5.65;97.53;96382.16;5133542;27;20478;-61
2023/12/16 08:30:40;;;;;;;0.70;0.60;;;;;;;5.61;97.43;96359.94;5133647;27;20962;-60
2023/12/16 08:33:08;;;;;;;1.40;0.30;;;;;;;5.81;96.56;96380.84;5134046;27;20442;-60
2023/12/16 08:35:37;;;;;;;0.57;0.50;;;;;;;5.37;97.96;96317.81;5133896;27;20998;-60
2023/12/16 08:38:06;;;;;;;0.70;0.67;;;;;;;5.99;100.00;96402.00;5134083;27;20521;-60
2023/12/16 08:40:34;;;;;;;0.50;0.50;;;;;;;6.11;100.00;96400.28;5133241;27;20473;-61
2023/12/16 08:43:03;;;;;;;0.40;0.30;;;;;;;6.08;96.34;96405.97;5133635;27;20435;-61
2023/12/16 08:45:33;;;;;;;0.50;0.50;;;;;;;5.77;95.77;96392.78;5132499;27;20514;-61
2023/12/16 08:48:02;;;;;;;0.30;0.20;;;;;;;5.03;97.27;96234.97;5133965;27;20504;-61
2023/12/16 08:50:31;;;;;;;0.60;0.50;;;;;;;6.17;97.15;96404.66;5133082;27;20901;-60
2023/12/16 08:52:59;;;;;;;0.70;0.30;;;;;;;5.91;98.32;96388.28;5134011;27;20517;-60
2023/12/16 08:55:28;;;;;;;0.30;0.20;;;;;;;5.90;96.23;96405.06;5133262;27;20480;-60
2023/12/16 08:57:57;;;;;;;0.50;0.50;;;;;;;5.79;96.29;96388.16;5133885;27;20434;-60
2023/12/16 09:00:26;;;;;;;0.83;0.50;;;;;;;5.72;95.96;96379.47;5133374;27;20431;-60
2023/12/16 09:02:56;;;;;;;0.40;0.30;;;;;;;5.64;96.83;96353.44;5132756;27;20905;-60
2023/12/16 09:05:26;;;;;;;0.40;0.30;;;;;;;6.11;94.03;96402.09;5107578;27;20509;-60
2023/12/16 09:07:55;;;;;;;0.30;0.20;;;;;;;6.05;96.56;96392.41;5132471;27;20470;-60
2023/12/16 09:10:24;;;;;;;0.30;0.20;;;;;;;6.01;93.27;96399.13;5133466;27;20438;-60
2023/12/16 09:12:53;;;;;;;0.47;0.47;;;;;;;6.24;96.14;96394.91;5132514;27;20441;-60
2023/12/16 09:15:21;;;;;;;0.60;0.30;;;;;;;6.12;91.71;96411.63;5133004;27;20494;-60
2023/12/16 09:17:50;;;;;;;0.40;0.40;;;;;;;6.08;89.80;96413.06;5133226;27;20495;-60
2023/12/16 09:20:20;;;;;;;0.50;0.30;;;;;;;6.15;90.06;96411.97;5132517;27;20438;-60
2023/12/16 09:22:49;;;;;;;0.30;0.30;;;;;;;6.16;90.87;96418.88;5132891;27;20487;-61
2023/12/16 09:25:17;;;;;;;0.30;0.20;;;;;;;6.46;93.03;96411.13;5133325;27;20449;-61
2023/12/16 09:27:47;;;;;;;0.47;0.47;;;;;;;6.74;89.66;96411.44;5132740;27;20431;-61
2023/12/16 09:30:16;;;;;;;0.30;0.20;;;;;;;6.70;84.21;96407.66;5133024;27;20438;-60
2023/12/16 09:32:45;;;;;;;0.40;0.27;;;;;;;6.46;85.59;96386.59;5132681;27;20439;-60
2023/12/16 09:35:14;;;;;;;0.60;0.60;;;;;;;6.44;83.24;96407.91;5133145;27;20823;-60
2023/12/16 09:37:44;;;;;;;0.40;0.40;;;;;;;6.36;82.47;96393.19;5132583;27;20443;-61
2023/12/16 09:40:13;;;;;;;0.30;0.20;;;;;;;6.51;82.48;96399.91;5133382;27;20462;-60
2023/12/16 09:42:44;;;;;;;0.40;0.30;;;;;;;6.36;81.17;96398.44;5106262;27;20517;-60
2023/12/16 09:45:15;;;;;;;0.30;0.20;;;;;;;6.50;82.96;96388.59;5132682;27;20938;-60
2023/12/16 09:47:44;;;;;;;0.30;0.20;;;;;;;6.36;81.13;96411.59;5132823;27;20434;-59
2023/12/16 09:50:14;;;;;;;0.30;0.30;;;;;;;6.62;82.11;96417.66;5132097;27;20429;-60
2023/12/16 09:52:44;;;;;;;0.40;0.40;;;;;;;6.44;81.62;96414.97;5123141;27;20841;-60
2023/12/16 09:55:14;;;;;;;0.50;0.40;;;;;;;6.21;80.93;96358.47;5124469;27;20439;-59
2023/12/16 09:57:44;;;;;;;2.20;0.43;;;;;;;6.57;79.29;96401.69;5123594;27;20434;-59
2023/12/16 10:00:17;;;;;;;0.30;0.20;;;;;;;6.39;81.00;96405.91;5132040;27;20560;-59
2023/12/16 10:02:50;;;;;;;0.40;0.30;;;;;;;6.25;80.67;96414.94;5132491;27;20439;-60
2023/12/16 10:05:19;;;;;;;0.30;0.30;;;;;;;6.29;82.92;96413.50;5131077;27;20434;-60
2023/12/16 10:07:51;;;;;;;0.30;0.27;;;;;;;6.69;84.64;96413.13;5119004;28;20436;-60
2023/12/16 10:10:19;;;;;;;1.80;0.43;;;;;;;6.44;81.00;96420.25;5123780;28;20442;-60
2023/12/16 10:12:48;;;;;;;0.30;0.20;;;;;;;6.48;81.76;96424.88;5132453;27;20531;-60
2023/12/16 10:15:30;;;;;;;0.30;0.20;;;;;;;6.69;83.71;96427.09;5131945;28;20460;-60
2023/12/16 10:18:00;;;;;;;0.40;0.20;;;;;;;6.40;80.69;96425.94;5132466;28;20450;-60
2023/12/16 10:20:29;;;;;;;0.30;0.20;;;;;;;6.63;81.24;96424.56;5132362;28;20449;-61
2023/12/16 10:23:01;;;;;;;0.60;0.47;;;;;;;6.25;79.04;96435.19;5131607;27;20430;-60
2023/12/16 10:25:32;;;;;;;0.30;0.20;;;;;;;6.56;79.78;96439.59;5132137;28;20522;-60
2023/12/16 10:28:02;;;;;;;1.37;0.50;;;;;;;6.56;80.01;96423.78;5132136;28;20442;-60
2023/12/16 10:30:32;;;;;;;0.30;0.20;;;;;;;6.53;79.91;96413.69;5132675;28;20916;-60
2023/12/16 10:33:03;;;;;;;0.40;0.40;;;;;;;6.57;79.83;96420.94;5131964;28;20446;-60
2023/12/16 10:35:32;;;;;;;0.70;0.40;;;;;;;6.32;79.30;96413.03;5131281;28;20439;-60
2023/12/16 10:38:04;;;;;;;0.50;0.47;;;;;;;6.62;77.83;96423.75;5132245;28;20454;-60
2023/12/16 10:40:37;;;;;;;0.90;0.90;;;;;;;6.72;76.87;96415.34;5129416;28;20898;-60
2023/12/16 10:43:08;;;;;;;0.30;0.20;;;;;;;6.57;75.48;96415.69;5131977;28;20439;-61
2023/12/16 10:45:37;;;;;;;0.40;0.40;;;;;;;6.77;76.08;96426.03;5132055;27;20835;-60
2023/12/16 10:48:10;;;;;;;0.40;0.40;;;;;;;6.63;75.75;96424.56;5132152;27;20494;-60
2023/12/16 10:50:44;;;;;;;0.40;0.30;;;;;;;6.72;74.45;96424.03;5127891;27;20471;-59
2023/12/16 10:53:24;;;;;;;0.40;0.20;;;;;;;6.44;74.84;96383.38;5103083;28;20431;-59
2023/12/16 10:55:59;;;;;;;0.97;0.40;;;;;;;6.62;73.12;96431.63;5123349;28;20458;-59
2023/12/16 10:58:31;;;;;;;0.63;0.30;;;;;;;6.58;77.98;96427.03;5130835;28;20445;-59
2023/12/16 11:01:06;;;;;;;5.00;0.40;;;;;;;6.57;73.85;96435.94;5132004;27;20480;-59
2023/12/16 11:03:41;;;;;;;0.30;0.20;;;;;;;6.74;72.82;96442.25;5131471;28;20438;-61
2023/12/16 11:06:16;;;;;;;0.40;0.30;;;;;;;6.81;71.33;96446.44;5132085;27;20438;-60
2023/12/16 11:08:47;;;;;;;0.40;0.37;;;;;;;6.87;73.01;96450.84;5131037;27;20491;-60
2023/12/16 11:11:18;;;;;;;0.40;0.40;;;;;;;6.66;71.38;96455.69;5131928;28;20469;-59
2023/12/16 11:13:50;;;;;;;0.50;0.50;;;;;;;6.68;74.20;96443.16;5106648;27;20491;-60
2023/12/16 11:16:27;;;;;;;0.40;0.40;;;;;;;6.71;71.37;96448.75;5134923;27;20478;-60
2023/12/16 11:18:58;;;;;;;0.77;0.30;;;;;;;6.61;70.89;96450.28;5135457;27;20461;-60
2023/12/16 11:21:29;;;;;;;0.30;0.20;;;;;;;6.98;74.28;96444.06;5121779;27;20514;-60
2023/12/16 11:24:02;;;;;;;0.30;0.20;;;;;;;6.73;71.12;96446.72;5135164;27;20438;-60
2023/12/16 11:26:31;;;;;;;0.40;0.40;;;;;;;6.50;72.43;96424.66;5128094;27;20822;-60
2023/12/16 11:29:00;;;;;;;0.40;0.20;;;;;;;6.70;73.12;96441.09;5125942;27;20437;-59
2023/12/16 11:31:30;;;;;;;0.30;0.20;;;;;;;6.80;71.42;96442.22;5135145;27;20846;-60
2023/12/16 11:33:59;;;;;;;0.40;0.30;;;;;;;6.81;70.65;96443.00;5135262;27;20512;-59
2023/12/16 11:36:49;;;;;;;0.30;0.20;;;;;;;6.90;71.31;96446.97;5123833;27;20844;-60
2023/12/16 11:39:39;;;;;;;0.30;0.20;;;;;;;6.85;73.45;96423.09;5135000;27;20435;-61
2023/12/16 11:42:10;;;;;;;0.40;0.30;;;;;;;6.94;71.76;96453.41;5134749;27;20430;-61
2023/12/16 11:44:55;;;;;;;0.30;0.20;;;;;;;6.99;74.98;96453.56;5135335;27;20604;-59
2023/12/16 11:47:25;;;;;;;0.30;0.20;;;;;;;6.80;69.16;96438.75;5134611;27;20434;-59